sensor_id;sensor_type;location;lat;lon;timestamp;temperature;humidity
56512;DHT22;42408;53.238;5.686;2023-05-20T00:00:09;10.70;99.90
56512;DHT22;42408;53.238;5.686;2023-05-20T00:02:35;10.70;99.90
56512;DHT22;42408;53.238;5.686;2023-05-20T00:05:01;10.70;99.90
56512;DHT22;42408;53.238;5.686;2023-05-20T00:07:27;10.70;99.90
56512;DHT22;42408;53.238;5.686;2023-05-20T00:09:52;10.70;99.90
56512;DHT22;42408;53.238;5.686;2023-05-20T00:12:18;10.70;99.90
56512;DHT22;42408;53.238;5.686;2023-05-20T00:14:44;10.70;99.90
56512;DHT22;42408;53.238;5.686;2023-05-20T00:17:09;10.60;99.90
56512;DHT22;42408;53.238;5.686;2023-05-20T00:19:35;10.60;99.90
56512;DHT22;42408;53.238;5.686;2023-05-20T00:22:01;10.60;99.90
56512;DHT22;42408;53.238;5.686;2023-05-20T00:24:26;10.60;99.90
56512;DHT22;42408;53.238;5.686;2023-05-20T00:26:52;10.50;99.90
56512;DHT22;42408;53.238;5.686;2023-05-20T00:29:20;10.60;99.90
56512;DHT22;42408;53.238;5.686;2023-05-20T00:31:45;10.50;99.90
56512;DHT22;42408;53.238;5.686;2023-05-20T00:34:11;10.50;99.90
56512;DHT22;42408;53.238;5.686;2023-05-20T00:36:37;10.50;99.90
56512;DHT22;42408;53.238;5.686;2023-05-20T00:39:02;10.50;99.90
56512;DHT22;42408;53.238;5.686;2023-05-20T00:41:28;10.40;99.90
56512;DHT22;42408;53.238;5.686;2023-05-20T00:43:55;10.40;99.90
56512;DHT22;42408;53.238;5.686;2023-05-20T00:46:23;10.40;99.90
56512;DHT22;42408;53.238;5.686;2023-05-20T00:48:50;10.30;99.90
56512;DHT22;42408;53.238;5.686;2023-05-20T00:51:17;10.30;99.90
56512;DHT22;42408;53.238;5.686;2023-05-20T00:53:43;10.30;99.90
56512;DHT22;42408;53.238;5.686;2023-05-20T00:56:09;10.30;99.90
56512;DHT22;42408;53.238;5.686;2023-05-20T00:58:35;10.30;99.90
56512;DHT22;42408;53.238;5.686;2023-05-20T01:01:02;10.30;99.90
56512;DHT22;42408;53.238;5.686;2023-05-20T01:03:28;10.20;99.90
56512;DHT22;42408;53.238;5.686;2023-05-20T01:05:54;10.20;99.90
56512;DHT22;42408;53.238;5.686;2023-05-20T01:08:23;10.20;99.90
56512;DHT22;42408;53.238;5.686;2023-05-20T01:10:54;10.20;99.90
56512;DHT22;42408;53.238;5.686;2023-05-20T01:13:24;10.20;99.90
56512;DHT22;42408;53.238;5.686;2023-05-20T01:15:54;10.20;99.90
56512;DHT22;42408;53.238;5.686;2023-05-20T01:18:22;10.10;99.90
56512;DHT22;42408;53.238;5.686;2023-05-20T01:20:53;10.10;99.90
56512;DHT22;42408;53.238;5.686;2023-05-20T01:23:19;10.10;99.90
56512;DHT22;42408;53.238;5.686;2023-05-20T01:25:46;10.20;99.90
56512;DHT22;42408;53.238;5.686;2023-05-20T01:28:11;10.20;99.90
56512;DHT22;42408;53.238;5.686;2023-05-20T01:30:46;10.10;99.90
56512;DHT22;42408;53.238;5.686;2023-05-20T01:33:14;10.20;99.90
56512;DHT22;42408;53.238;5.686;2023-05-20T01:35:41;10.10;99.90
56512;DHT22;42408;53.238;5.686;2023-05-20T01:38:07;10.20;99.90
56512;DHT22;42408;53.238;5.686;2023-05-20T01:40:33;10.10;99.90
56512;DHT22;42408;53.238;5.686;2023-05-20T01:43:01;10.10;99.90
56512;DHT22;42408;53.238;5.686;2023-05-20T01:45:27;10.10;99.90
56512;DHT22;42408;53.238;5.686;2023-05-20T01:47:52;10.20;99.90
56512;DHT22;42408;53.238;5.686;2023-05-20T01:50:18;10.10;99.90
56512;DHT22;42408;53.238;5.686;2023-05-20T01:52:44;10.10;99.90
56512;DHT22;42408;53.238;5.686;2023-05-20T01:55:09;10.10;99.90
56512;DHT22;42408;53.238;5.686;2023-05-20T01:57:35;11.00;99.90
56512;DHT22;42408;53.238;5.686;2023-05-20T02:00:01;10.00;99.90
56512;DHT22;42408;53.238;5.686;2023-05-20T02:02:27;10.10;99.90
56512;DHT22;42408;53.238;5.686;2023-05-20T02:04:53;10.10;99.90
56512;DHT22;42408;53.238;5.686;2023-05-20T02:07:19;10.00;99.90
56512;DHT22;42408;53.238;5.686;2023-05-20T02:09:45;10.00;99.90
56512;DHT22;42408;53.238;5.686;2023-05-20T02:12:11;10.00;99.90
56512;DHT22;42408;53.238;5.686;2023-05-20T02:14:45;10.00;99.90
56512;DHT22;42408;53.238;5.686;2023-05-20T02:17:11;10.00;99.90
56512;DHT22;42408;53.238;5.686;2023-05-20T02:19:38;10.00;99.90
56512;DHT22;42408;53.238;5.686;2023-05-20T02:22:05;10.10;99.90
56512;DHT22;42408;53.238;5.686;2023-05-20T02:24:31;10.00;99.90
56512;DHT22;42408;53.238;5.686;2023-05-20T02:26:56;10.00;99.90
56512;DHT22;42408;53.238;5.686;2023-05-20T02:29:23;10.00;99.90
56512;DHT22;42408;53.238;5.686;2023-05-20T02:31:49;10.00;99.90
56512;DHT22;42408;53.238;5.686;2023-05-20T02:34:16;10.00;99.90
56512;DHT22;42408;53.238;5.686;2023-05-20T02:36:42;10.00;99.90
56512;DHT22;42408;53.238;5.686;2023-05-20T02:39:08;10.00;99.90
56512;DHT22;42408;53.238;5.686;2023-05-20T02:41:33;10.00;99.90
56512;DHT22;42408;53.238;5.686;2023-05-20T02:43:59;10.00;99.90
56512;DHT22;42408;53.238;5.686;2023-05-20T02:46:25;10.00;99.90
56512;DHT22;42408;53.238;5.686;2023-05-20T02:48:50;10.00;99.90
56512;DHT22;42408;53.238;5.686;2023-05-20T02:51:16;10.00;99.90
56512;DHT22;42408;53.238;5.686;2023-05-20T02:53:41;10.00;99.90
56512;DHT22;42408;53.238;5.686;2023-05-20T02:56:07;10.00;99.90
56512;DHT22;42408;53.238;5.686;2023-05-20T02:58:33;10.00;99.90
56512;DHT22;42408;53.238;5.686;2023-05-20T03:01:03;10.00;99.90
56512;DHT22;42408;53.238;5.686;2023-05-20T03:03:28;10.00;99.90
56512;DHT22;42408;53.238;5.686;2023-05-20T03:05:54;10.00;99.90
56512;DHT22;42408;53.238;5.686;2023-05-20T03:08:21;10.10;99.90
56512;DHT22;42408;53.238;5.686;2023-05-20T03:10:48;10.00;99.90
56512;DHT22;42408;53.238;5.686;2023-05-20T03:13:13;10.00;99.90
56512;DHT22;42408;53.238;5.686;2023-05-20T03:15:40;10.00;99.90
56512;DHT22;42408;53.238;5.686;2023-05-20T03:18:06;10.00;99.90
56512;DHT22;42408;53.238;5.686;2023-05-20T03:20:33;10.00;99.90
56512;DHT22;42408;53.238;5.686;2023-05-20T03:23:02;10.00;99.90
56512;DHT22;42408;53.238;5.686;2023-05-20T03:25:27;10.00;99.90
56512;DHT22;42408;53.238;5.686;2023-05-20T03:27:53;9.90;99.90
56512;DHT22;42408;53.238;5.686;2023-05-20T03:30:19;9.90;99.90
56512;DHT22;42408;53.238;5.686;2023-05-20T03:32:45;9.90;99.90
56512;DHT22;42408;53.238;5.686;2023-05-20T03:35:11;9.90;99.90
56512;DHT22;42408;53.238;5.686;2023-05-20T03:37:36;9.90;99.90
56512;DHT22;42408;53.238;5.686;2023-05-20T03:40:02;9.90;99.90
56512;DHT22;42408;53.238;5.686;2023-05-20T03:42:33;9.80;99.90
56512;DHT22;42408;53.238;5.686;2023-05-20T03:44:59;9.80;99.90
56512;DHT22;42408;53.238;5.686;2023-05-20T03:47:25;9.80;99.90
56512;DHT22;42408;53.238;5.686;2023-05-20T03:49:51;9.80;99.90
56512;DHT22;42408;53.238;5.686;2023-05-20T03:52:17;9.80;99.90
56512;DHT22;42408;53.238;5.686;2023-05-20T03:54:43;9.70;99.90
56512;DHT22;42408;53.238;5.686;2023-05-20T03:57:08;9.70;99.90
56512;DHT22;42408;53.238;5.686;2023-05-20T03:59:37;9.70;99.90
56512;DHT22;42408;53.238;5.686;2023-05-20T04:02:03;9.70;99.90
56512;DHT22;42408;53.238;5.686;2023-05-20T04:04:29;9.70;99.90
56512;DHT22;42408;53.238;5.686;2023-05-20T04:06:55;9.80;99.90
56512;DHT22;42408;53.238;5.686;2023-05-20T04:09:21;9.80;99.90
56512;DHT22;42408;53.238;5.686;2023-05-20T04:11:47;9.80;99.90
56512;DHT22;42408;53.238;5.686;2023-05-20T04:14:13;9.80;99.90
56512;DHT22;42408;53.238;5.686;2023-05-20T04:16:39;9.80;99.90
56512;DHT22;42408;53.238;5.686;2023-05-20T04:19:05;9.80;99.90
56512;DHT22;42408;53.238;5.686;2023-05-20T04:21:31;9.80;99.90
56512;DHT22;42408;53.238;5.686;2023-05-20T04:23:57;9.80;99.90
56512;DHT22;42408;53.238;5.686;2023-05-20T04:26:23;9.90;99.90
56512;DHT22;42408;53.238;5.686;2023-05-20T04:28:48;9.90;99.90
56512;DHT22;42408;53.238;5.686;2023-05-20T04:31:14;9.90;99.90
56512;DHT22;42408;53.238;5.686;2023-05-20T04:33:40;10.00;99.90
56512;DHT22;42408;53.238;5.686;2023-05-20T04:36:08;10.00;99.90
56512;DHT22;42408;53.238;5.686;2023-05-20T04:38:34;10.00;99.90
56512;DHT22;42408;53.238;5.686;2023-05-20T04:41:00;10.10;99.90
56512;DHT22;42408;53.238;5.686;2023-05-20T04:43:28;10.10;99.90
56512;DHT22;42408;53.238;5.686;2023-05-20T04:45:58;10.10;99.90
56512;DHT22;42408;53.238;5.686;2023-05-20T04:48:25;10.20;99.90
56512;DHT22;42408;53.238;5.686;2023-05-20T04:50:52;10.20;99.90
56512;DHT22;42408;53.238;5.686;2023-05-20T04:53:19;10.20;99.90
56512;DHT22;42408;53.238;5.686;2023-05-20T04:55:46;10.30;99.90
56512;DHT22;42408;53.238;5.686;2023-05-20T04:58:12;10.30;99.90
56512;DHT22;42408;53.238;5.686;2023-05-20T05:00:42;10.30;99.90
56512;DHT22;42408;53.238;5.686;2023-05-20T05:03:08;10.40;99.90
56512;DHT22;42408;53.238;5.686;2023-05-20T05:05:38;10.50;99.90
56512;DHT22;42408;53.238;5.686;2023-05-20T05:08:05;10.50;99.90
56512;DHT22;42408;53.238;5.686;2023-05-20T05:10:31;10.60;99.90
56512;DHT22;42408;53.238;5.686;2023-05-20T05:12:57;10.70;99.90
56512;DHT22;42408;53.238;5.686;2023-05-20T05:15:23;10.60;99.90
56512;DHT22;42408;53.238;5.686;2023-05-20T05:17:49;10.80;99.90
56512;DHT22;42408;53.238;5.686;2023-05-20T05:20:15;10.90;99.90
56512;DHT22;42408;53.238;5.686;2023-05-20T05:22:41;11.00;99.90
56512;DHT22;42408;53.238;5.686;2023-05-20T05:25:07;11.00;99.90
56512;DHT22;42408;53.238;5.686;2023-05-20T05:27:34;11.10;99.90
56512;DHT22;42408;53.238;5.686;2023-05-20T05:30:01;11.10;99.90
56512;DHT22;42408;53.238;5.686;2023-05-20T05:32:27;11.30;99.90
56512;DHT22;42408;53.238;5.686;2023-05-20T05:34:52;11.20;99.90
56512;DHT22;42408;53.238;5.686;2023-05-20T05:37:18;11.30;99.90
56512;DHT22;42408;53.238;5.686;2023-05-20T05:39:44;11.30;99.90
56512;DHT22;42408;53.238;5.686;2023-05-20T05:42:10;11.40;99.90
56512;DHT22;42408;53.238;5.686;2023-05-20T05:44:35;11.40;99.90
56512;DHT22;42408;53.238;5.686;2023-05-20T05:47:01;11.50;99.90
56512;DHT22;42408;53.238;5.686;2023-05-20T05:49:26;11.60;99.90
56512;DHT22;42408;53.238;5.686;2023-05-20T05:51:52;11.60;99.90
56512;DHT22;42408;53.238;5.686;2023-05-20T05:54:18;11.80;99.90
56512;DHT22;42408;53.238;5.686;2023-05-20T05:56:45;11.80;99.90
56512;DHT22;42408;53.238;5.686;2023-05-20T05:59:11;11.80;99.90
56512;DHT22;42408;53.238;5.686;2023-05-20T06:01:36;11.90;99.90
56512;DHT22;42408;53.238;5.686;2023-05-20T06:04:02;11.90;99.90
56512;DHT22;42408;53.238;5.686;2023-05-20T06:06:28;11.90;99.90
56512;DHT22;42408;53.238;5.686;2023-05-20T06:08:53;12.00;99.90
56512;DHT22;42408;53.238;5.686;2023-05-20T06:11:20;12.00;99.90
56512;DHT22;42408;53.238;5.686;2023-05-20T06:13:46;12.00;99.90
56512;DHT22;42408;53.238;5.686;2023-05-20T06:16:11;12.00;99.90
56512;DHT22;42408;53.238;5.686;2023-05-20T06:18:37;12.00;99.90
56512;DHT22;42408;53.238;5.686;2023-05-20T06:21:03;11.90;99.90
56512;DHT22;42408;53.238;5.686;2023-05-20T06:23:29;11.90;99.90
56512;DHT22;42408;53.238;5.686;2023-05-20T06:25:58;12.00;99.90
56512;DHT22;42408;53.238;5.686;2023-05-20T06:28:25;12.30;99.90
56512;DHT22;42408;53.238;5.686;2023-05-20T06:30:51;12.10;99.90
56512;DHT22;42408;53.238;5.686;2023-05-20T06:33:19;12.20;99.90
56512;DHT22;42408;53.238;5.686;2023-05-20T06:35:45;12.70;99.90
56512;DHT22;42408;53.238;5.686;2023-05-20T06:38:10;13.70;99.90
56512;DHT22;42408;53.238;5.686;2023-05-20T06:40:36;14.90;99.90
56512;DHT22;42408;53.238;5.686;2023-05-20T06:43:02;15.70;99.90
56512;DHT22;42408;53.238;5.686;2023-05-20T06:45:27;16.70;99.90
56512;DHT22;42408;53.238;5.686;2023-05-20T06:47:53;17.40;99.90
56512;DHT22;42408;53.238;5.686;2023-05-20T06:50:19;18.20;99.90
56512;DHT22;42408;53.238;5.686;2023-05-20T06:52:45;19.10;99.90
56512;DHT22;42408;53.238;5.686;2023-05-20T06:55:10;20.00;99.90
56512;DHT22;42408;53.238;5.686;2023-05-20T06:57:37;20.60;99.90
56512;DHT22;42408;53.238;5.686;2023-05-20T07:00:03;21.10;99.90
56512;DHT22;42408;53.238;5.686;2023-05-20T07:02:32;21.70;99.90
56512;DHT22;42408;53.238;5.686;2023-05-20T07:04:57;22.30;99.90
56512;DHT22;42408;53.238;5.686;2023-05-20T07:07:23;22.40;99.90
56512;DHT22;42408;53.238;5.686;2023-05-20T07:09:49;22.80;99.20
56512;DHT22;42408;53.238;5.686;2023-05-20T07:12:15;22.90;97.90
56512;DHT22;42408;53.238;5.686;2023-05-20T07:14:41;23.10;99.80
56512;DHT22;42408;53.238;5.686;2023-05-20T07:17:06;23.10;96.70
56512;DHT22;42408;53.238;5.686;2023-05-20T07:19:32;23.00;96.50
56512;DHT22;42408;53.238;5.686;2023-05-20T07:21:58;22.90;98.20
56512;DHT22;42408;53.238;5.686;2023-05-20T07:24:24;22.80;97.20
56512;DHT22;42408;53.238;5.686;2023-05-20T07:26:50;23.10;97.90
56512;DHT22;42408;53.238;5.686;2023-05-20T07:29:16;23.60;98.20
56512;DHT22;42408;53.238;5.686;2023-05-20T07:31:41;24.00;99.20
56512;DHT22;42408;53.238;5.686;2023-05-20T07:34:07;23.60;97.00
56512;DHT22;42408;53.238;5.686;2023-05-20T07:36:32;23.30;97.20
56512;DHT22;42408;53.238;5.686;2023-05-20T07:38:58;23.50;96.30
56512;DHT22;42408;53.238;5.686;2023-05-20T07:41:24;23.30;94.80
56512;DHT22;42408;53.238;5.686;2023-05-20T07:43:50;23.10;95.30
56512;DHT22;42408;53.238;5.686;2023-05-20T07:46:16;23.00;96.20
56512;DHT22;42408;53.238;5.686;2023-05-20T07:48:42;23.00;97.00
56512;DHT22;42408;53.238;5.686;2023-05-20T07:51:09;22.90;97.80
56512;DHT22;42408;53.238;5.686;2023-05-20T07:53:36;22.90;96.70
56512;DHT22;42408;53.238;5.686;2023-05-20T07:56:01;22.80;97.10
56512;DHT22;42408;53.238;5.686;2023-05-20T07:58:27;22.80;96.10
56512;DHT22;42408;53.238;5.686;2023-05-20T08:00:53;22.60;96.10
56512;DHT22;42408;53.238;5.686;2023-05-20T08:03:19;22.30;94.50
56512;DHT22;42408;53.238;5.686;2023-05-20T08:05:46;22.70;98.60
56512;DHT22;42408;53.238;5.686;2023-05-20T08:08:12;22.90;97.50
56512;DHT22;42408;53.238;5.686;2023-05-20T08:10:37;22.90;97.80
56512;DHT22;42408;53.238;5.686;2023-05-20T08:13:03;22.80;94.70
56512;DHT22;42408;53.238;5.686;2023-05-20T08:15:29;22.80;97.60
56512;DHT22;42408;53.238;5.686;2023-05-20T08:17:54;22.50;96.10
56512;DHT22;42408;53.238;5.686;2023-05-20T08:20:20;22.50;96.90
56512;DHT22;42408;53.238;5.686;2023-05-20T08:22:46;22.30;98.20
56512;DHT22;42408;53.238;5.686;2023-05-20T08:25:11;22.10;98.30
56512;DHT22;42408;53.238;5.686;2023-05-20T08:27:37;22.10;98.00
56512;DHT22;42408;53.238;5.686;2023-05-20T08:30:04;22.10;96.60
56512;DHT22;42408;53.238;5.686;2023-05-20T08:32:29;22.30;99.90
56512;DHT22;42408;53.238;5.686;2023-05-20T08:34:56;22.30;99.00
56512;DHT22;42408;53.238;5.686;2023-05-20T08:37:21;22.30;98.50
56512;DHT22;42408;53.238;5.686;2023-05-20T08:39:47;22.10;97.90
56512;DHT22;42408;53.238;5.686;2023-05-20T08:42:14;22.10;99.30
56512;DHT22;42408;53.238;5.686;2023-05-20T08:44:41;21.70;95.50
56512;DHT22;42408;53.238;5.686;2023-05-20T08:47:08;21.50;98.10
56512;DHT22;42408;53.238;5.686;2023-05-20T08:49:34;21.50;96.20
56512;DHT22;42408;53.238;5.686;2023-05-20T08:52:00;21.30;97.60
56512;DHT22;42408;53.238;5.686;2023-05-20T08:54:34;21.30;99.60
56512;DHT22;42408;53.238;5.686;2023-05-20T08:57:03;21.50;99.90
56512;DHT22;42408;53.238;5.686;2023-05-20T08:59:29;21.70;99.20
56512;DHT22;42408;53.238;5.686;2023-05-20T09:01:55;21.70;98.30
56512;DHT22;42408;53.238;5.686;2023-05-20T09:04:20;21.60;98.20
56512;DHT22;42408;53.238;5.686;2023-05-20T09:06:46;21.60;97.70
56512;DHT22;42408;53.238;5.686;2023-05-20T09:09:13;21.60;99.80
56512;DHT22;42408;53.238;5.686;2023-05-20T09:11:42;21.70;98.60
56512;DHT22;42408;53.238;5.686;2023-05-20T09:14:07;21.70;97.00
56512;DHT22;42408;53.238;5.686;2023-05-20T09:16:33;21.70;97.30
56512;DHT22;42408;53.238;5.686;2023-05-20T09:18:59;21.80;98.20
56512;DHT22;42408;53.238;5.686;2023-05-20T09:21:28;21.70;96.20
56512;DHT22;42408;53.238;5.686;2023-05-20T09:23:55;21.60;97.90
56512;DHT22;42408;53.238;5.686;2023-05-20T09:26:26;21.60;97.60
56512;DHT22;42408;53.238;5.686;2023-05-20T09:28:58;21.60;97.70
56512;DHT22;42408;53.238;5.686;2023-05-20T09:31:27;21.70;97.50
56512;DHT22;42408;53.238;5.686;2023-05-20T09:33:55;21.70;97.50
56512;DHT22;42408;53.238;5.686;2023-05-20T09:36:22;21.70;99.20
56512;DHT22;42408;53.238;5.686;2023-05-20T09:38:51;21.70;98.70
56512;DHT22;42408;53.238;5.686;2023-05-20T09:41:19;21.70;98.80
56512;DHT22;42408;53.238;5.686;2023-05-20T09:43:49;21.70;98.80
56512;DHT22;42408;53.238;5.686;2023-05-20T09:46:16;21.80;99.20
56512;DHT22;42408;53.238;5.686;2023-05-20T09:48:42;21.70;98.30
56512;DHT22;42408;53.238;5.686;2023-05-20T09:51:09;21.70;97.80
56512;DHT22;42408;53.238;5.686;2023-05-20T09:53:36;21.60;99.00
56512;DHT22;42408;53.238;5.686;2023-05-20T09:56:02;21.60;99.40
56512;DHT22;42408;53.238;5.686;2023-05-20T09:58:29;21.60;97.00
56512;DHT22;42408;53.238;5.686;2023-05-20T10:00:55;21.40;97.70
56512;DHT22;42408;53.238;5.686;2023-05-20T10:03:21;21.60;98.90
56512;DHT22;42408;53.238;5.686;2023-05-20T10:08:57;21.20;99.90
56512;DHT22;42408;53.238;5.686;2023-05-20T10:11:42;21.30;99.20
56512;DHT22;42408;53.238;5.686;2023-05-20T10:14:35;21.30;99.90
56512;DHT22;42408;53.238;5.686;2023-05-20T10:19:34;21.30;98.00
56512;DHT22;42408;53.238;5.686;2023-05-20T10:22:04;21.10;99.50
56512;DHT22;42408;53.238;5.686;2023-05-20T10:24:32;20.90;97.90
56512;DHT22;42408;53.238;5.686;2023-05-20T10:26:58;20.70;99.20
56512;DHT22;42408;53.238;5.686;2023-05-20T10:29:25;20.60;99.90
56512;DHT22;42408;53.238;5.686;2023-05-20T10:31:52;20.60;99.90
56512;DHT22;42408;53.238;5.686;2023-05-20T10:34:19;20.70;99.90
56512;DHT22;42408;53.238;5.686;2023-05-20T10:36:57;20.80;99.90
56512;DHT22;42408;53.238;5.686;2023-05-20T10:39:30;21.10;99.90
56512;DHT22;42408;53.238;5.686;2023-05-20T10:42:09;21.30;99.90
56512;DHT22;42408;53.238;5.686;2023-05-20T10:44:45;21.40;99.90
56512;DHT22;42408;53.238;5.686;2023-05-20T10:47:12;21.30;99.90
56512;DHT22;42408;53.238;5.686;2023-05-20T10:49:44;21.30;99.90
56512;DHT22;42408;53.238;5.686;2023-05-20T10:52:12;21.40;99.90
56512;DHT22;42408;53.238;5.686;2023-05-20T10:54:56;21.30;99.90
56512;DHT22;42408;53.238;5.686;2023-05-20T10:57:24;21.30;99.90
56512;DHT22;42408;53.238;5.686;2023-05-20T10:59:50;21.30;99.90
56512;DHT22;42408;53.238;5.686;2023-05-20T11:02:18;21.50;99.90
56512;DHT22;42408;53.238;5.686;2023-05-20T11:04:44;21.40;99.90
56512;DHT22;42408;53.238;5.686;2023-05-20T11:07:11;21.50;99.90
56512;DHT22;42408;53.238;5.686;2023-05-20T11:09:37;21.60;99.90
56512;DHT22;42408;53.238;5.686;2023-05-20T11:12:03;21.60;99.90
56512;DHT22;42408;53.238;5.686;2023-05-20T11:14:28;21.50;99.90
56512;DHT22;42408;53.238;5.686;2023-05-20T11:16:58;21.60;99.90
56512;DHT22;42408;53.238;5.686;2023-05-20T11:19:25;21.50;99.90
56512;DHT22;42408;53.238;5.686;2023-05-20T11:21:51;21.50;99.90
56512;DHT22;42408;53.238;5.686;2023-05-20T11:24:27;21.40;99.90
56512;DHT22;42408;53.238;5.686;2023-05-20T11:26:54;21.30;99.90
56512;DHT22;42408;53.238;5.686;2023-05-20T11:29:20;21.20;99.90
56512;DHT22;42408;53.238;5.686;2023-05-20T11:31:49;21.10;99.90
56512;DHT22;42408;53.238;5.686;2023-05-20T11:34:19;21.00;99.90
56512;DHT22;42408;53.238;5.686;2023-05-20T11:36:45;20.80;99.90
56512;DHT22;42408;53.238;5.686;2023-05-20T11:39:11;20.70;99.90
56512;DHT22;42408;53.238;5.686;2023-05-20T11:41:38;20.60;99.90
56512;DHT22;42408;53.238;5.686;2023-05-20T11:44:06;20.70;99.90
56512;DHT22;42408;53.238;5.686;2023-05-20T11:46:40;20.80;99.90
56512;DHT22;42408;53.238;5.686;2023-05-20T11:49:06;20.80;99.90
56512;DHT22;42408;53.238;5.686;2023-05-20T11:51:33;20.90;99.90
56512;DHT22;42408;53.238;5.686;2023-05-20T11:54:02;20.90;99.90
56512;DHT22;42408;53.238;5.686;2023-05-20T11:56:29;21.00;99.90
56512;DHT22;42408;53.238;5.686;2023-05-20T11:58:59;21.10;99.90
56512;DHT22;42408;53.238;5.686;2023-05-20T12:01:25;20.90;99.90
56512;DHT22;42408;53.238;5.686;2023-05-20T12:03:52;20.90;99.90
56512;DHT22;42408;53.238;5.686;2023-05-20T12:06:18;20.90;99.90
56512;DHT22;42408;53.238;5.686;2023-05-20T12:08:44;20.70;99.90
56512;DHT22;42408;53.238;5.686;2023-05-20T12:11:11;20.50;99.90
56512;DHT22;42408;53.238;5.686;2023-05-20T12:13:37;20.50;99.90
56512;DHT22;42408;53.238;5.686;2023-05-20T12:16:02;20.60;99.90
56512;DHT22;42408;53.238;5.686;2023-05-20T12:18:30;20.70;99.90
56512;DHT22;42408;53.238;5.686;2023-05-20T12:20:57;20.90;99.90
56512;DHT22;42408;53.238;5.686;2023-05-20T12:23:23;21.00;99.90
56512;DHT22;42408;53.238;5.686;2023-05-20T12:25:48;21.10;99.90
56512;DHT22;42408;53.238;5.686;2023-05-20T12:28:15;21.20;99.90
56512;DHT22;42408;53.238;5.686;2023-05-20T12:30:42;21.30;99.90
56512;DHT22;42408;53.238;5.686;2023-05-20T12:33:08;21.30;99.90
56512;DHT22;42408;53.238;5.686;2023-05-20T12:35:41;21.10;99.90
56512;DHT22;42408;53.238;5.686;2023-05-20T12:38:07;20.80;99.90
56512;DHT22;42408;53.238;5.686;2023-05-20T12:40:34;20.60;99.90
56512;DHT22;42408;53.238;5.686;2023-05-20T12:43:00;20.40;99.90
56512;DHT22;42408;53.238;5.686;2023-05-20T12:45:26;20.40;99.90
56512;DHT22;42408;53.238;5.686;2023-05-20T12:47:53;20.40;99.90
56512;DHT22;42408;53.238;5.686;2023-05-20T12:50:18;20.50;99.90
56512;DHT22;42408;53.238;5.686;2023-05-20T12:52:44;20.40;99.90
56512;DHT22;42408;53.238;5.686;2023-05-20T12:55:10;20.20;99.90
56512;DHT22;42408;53.238;5.686;2023-05-20T12:57:45;20.20;99.90
56512;DHT22;42408;53.238;5.686;2023-05-20T13:00:12;20.00;99.90
56512;DHT22;42408;53.238;5.686;2023-05-20T13:02:38;20.00;99.90
56512;DHT22;42408;53.238;5.686;2023-05-20T13:05:05;19.90;99.90
56512;DHT22;42408;53.238;5.686;2023-05-20T13:07:31;20.00;99.90
56512;DHT22;42408;53.238;5.686;2023-05-20T13:09:57;20.10;99.90
56512;DHT22;42408;53.238;5.686;2023-05-20T13:12:23;20.10;99.90
56512;DHT22;42408;53.238;5.686;2023-05-20T13:14:49;19.90;99.90
56512;DHT22;42408;53.238;5.686;2023-05-20T13:17:14;19.90;99.90
56512;DHT22;42408;53.238;5.686;2023-05-20T13:19:40;19.90;99.90
56512;DHT22;42408;53.238;5.686;2023-05-20T13:22:06;19.90;99.90
56512;DHT22;42408;53.238;5.686;2023-05-20T13:24:33;20.00;99.90
56512;DHT22;42408;53.238;5.686;2023-05-20T13:26:59;20.00;99.90
56512;DHT22;42408;53.238;5.686;2023-05-20T13:29:26;20.00;99.90
56512;DHT22;42408;53.238;5.686;2023-05-20T13:31:52;19.90;99.90
56512;DHT22;42408;53.238;5.686;2023-05-20T13:34:18;19.90;99.90
56512;DHT22;42408;53.238;5.686;2023-05-20T13:36:43;19.90;99.90
56512;DHT22;42408;53.238;5.686;2023-05-20T13:39:10;19.90;99.90
56512;DHT22;42408;53.238;5.686;2023-05-20T13:41:36;19.80;99.90
56512;DHT22;42408;53.238;5.686;2023-05-20T13:44:02;19.80;99.90
56512;DHT22;42408;53.238;5.686;2023-05-20T13:46:27;19.90;99.90
56512;DHT22;42408;53.238;5.686;2023-05-20T13:48:53;19.90;99.90
56512;DHT22;42408;53.238;5.686;2023-05-20T13:51:18;19.90;99.90
56512;DHT22;42408;53.238;5.686;2023-05-20T13:53:44;19.90;99.90
56512;DHT22;42408;53.238;5.686;2023-05-20T13:56:10;19.90;99.90
56512;DHT22;42408;53.238;5.686;2023-05-20T13:58:36;20.00;99.90
56512;DHT22;42408;53.238;5.686;2023-05-20T14:01:03;20.00;99.90
56512;DHT22;42408;53.238;5.686;2023-05-20T14:03:29;20.00;99.90
56512;DHT22;42408;53.238;5.686;2023-05-20T14:05:56;20.00;99.90
56512;DHT22;42408;53.238;5.686;2023-05-20T14:08:22;19.90;99.90
56512;DHT22;42408;53.238;5.686;2023-05-20T14:10:47;19.80;99.90
56512;DHT22;42408;53.238;5.686;2023-05-20T14:13:13;19.90;99.90
56512;DHT22;42408;53.238;5.686;2023-05-20T14:15:39;19.90;99.90
56512;DHT22;42408;53.238;5.686;2023-05-20T14:18:05;19.90;99.90
56512;DHT22;42408;53.238;5.686;2023-05-20T14:20:31;19.80;99.90
56512;DHT22;42408;53.238;5.686;2023-05-20T14:22:56;19.70;99.90
56512;DHT22;42408;53.238;5.686;2023-05-20T14:25:22;19.70;99.90
56512;DHT22;42408;53.238;5.686;2023-05-20T14:27:48;19.60;99.90
56512;DHT22;42408;53.238;5.686;2023-05-20T14:30:14;19.60;99.90
56512;DHT22;42408;53.238;5.686;2023-05-20T14:32:40;19.50;99.90
56512;DHT22;42408;53.238;5.686;2023-05-20T14:35:06;19.50;99.90
56512;DHT22;42408;53.238;5.686;2023-05-20T14:37:32;19.50;99.90
56512;DHT22;42408;53.238;5.686;2023-05-20T14:39:57;19.50;99.90
56512;DHT22;42408;53.238;5.686;2023-05-20T14:42:23;19.40;99.90
56512;DHT22;42408;53.238;5.686;2023-05-20T14:44:49;19.30;99.90
56512;DHT22;42408;53.238;5.686;2023-05-20T14:47:14;19.40;99.90
56512;DHT22;42408;53.238;5.686;2023-05-20T14:49:44;19.40;99.90
56512;DHT22;42408;53.238;5.686;2023-05-20T14:52:10;19.30;99.90
56512;DHT22;42408;53.238;5.686;2023-05-20T14:54:36;19.30;99.90
56512;DHT22;42408;53.238;5.686;2023-05-20T14:57:02;19.20;99.90
56512;DHT22;42408;53.238;5.686;2023-05-20T14:59:30;19.20;99.90
56512;DHT22;42408;53.238;5.686;2023-05-20T15:01:56;19.20;99.90
56512;DHT22;42408;53.238;5.686;2023-05-20T15:04:22;19.20;99.90
56512;DHT22;42408;53.238;5.686;2023-05-20T15:06:47;19.20;99.90
56512;DHT22;42408;53.238;5.686;2023-05-20T15:09:13;19.30;99.90
56512;DHT22;42408;53.238;5.686;2023-05-20T15:11:39;19.40;99.90
56512;DHT22;42408;53.238;5.686;2023-05-20T15:14:05;19.30;99.90
56512;DHT22;42408;53.238;5.686;2023-05-20T15:16:30;19.20;99.90
56512;DHT22;42408;53.238;5.686;2023-05-20T15:18:56;19.10;99.90
56512;DHT22;42408;53.238;5.686;2023-05-20T15:21:21;19.00;99.90
56512;DHT22;42408;53.238;5.686;2023-05-20T15:23:47;18.90;99.90
56512;DHT22;42408;53.238;5.686;2023-05-20T15:26:13;18.80;99.90
56512;DHT22;42408;53.238;5.686;2023-05-20T15:28:39;18.80;99.90
56512;DHT22;42408;53.238;5.686;2023-05-20T15:31:05;18.90;99.90
56512;DHT22;42408;53.238;5.686;2023-05-20T15:33:31;19.00;99.90